sensor_id;sensor_type;location;lat;lon;timestamp;pressure;altitude;pressure_sealevel;temperature;humidity
38630;BME280;24384;51.988;4.644;2022-09-03T00:01:45;101268.00;;;20.34;100.00
38630;BME280;24384;51.988;4.644;2022-09-03T00:04:38;101272.44;;;20.13;100.00
38630;BME280;24384;51.988;4.644;2022-09-03T00:07:14;101264.63;;;20.09;100.00
38630;BME280;24384;51.988;4.644;2022-09-03T00:09:56;101257.13;;;20.01;100.00
38630;BME280;24384;51.988;4.644;2022-09-03T00:12:27;101261.47;;;19.95;100.00
38630;BME280;24384;51.988;4.644;2022-09-03T00:15:17;101253.88;;;20.03;100.00
38630;BME280;24384;51.988;4.644;2022-09-03T00:17:53;101262.63;;;19.91;100.00
38630;BME280;24384;51.988;4.644;2022-09-03T00:20:39;101259.53;;;19.99;100.00
38630;BME280;24384;51.988;4.644;2022-09-03T00:23:09;101260.44;;;20.03;100.00
38630;BME280;24384;51.988;4.644;2022-09-03T00:25:48;101254.66;;;20.00;100.00
38630;BME280;24384;51.988;4.644;2022-09-03T00:28:22;101259.44;;;19.96;100.00
38630;BME280;24384;51.988;4.644;2022-09-03T00:31:05;101253.53;;;19.85;100.00
38630;BME280;24384;51.988;4.644;2022-09-03T00:33:32;101239.03;;;19.75;100.00
38630;BME280;24384;51.988;4.644;2022-09-03T00:36:07;101249.47;;;19.86;100.00
38630;BME280;24384;51.988;4.644;2022-09-03T00:38:36;101244.13;;;19.66;100.00
38630;BME280;24384;51.988;4.644;2022-09-03T00:46:25;101250.28;;;19.48;100.00
38630;BME280;24384;51.988;4.644;2022-09-03T00:52:19;101267.72;;;19.28;100.00
38630;BME280;24384;51.988;4.644;2022-09-03T01:00:10;101256.94;;;19.37;100.00
38630;BME280;24384;51.988;4.644;2022-09-03T01:05:40;101259.75;;;19.18;100.00
38630;BME280;24384;51.988;4.644;2022-09-03T01:14:37;101261.13;;;19.24;100.00
38630;BME280;24384;51.988;4.644;2022-09-03T01:39:04;101285.56;;;19.06;100.00
38630;BME280;24384;51.988;4.644;2022-09-03T01:50:49;101265.56;;;19.06;100.00
38630;BME280;24384;51.988;4.644;2022-09-03T01:52:54;101268.38;;;18.86;100.00
38630;BME280;24384;51.988;4.644;2022-09-03T01:55:31;101271.47;;;18.97;100.00
38630;BME280;24384;51.988;4.644;2022-09-03T02:00:53;101256.28;;;19.09;100.00
38630;BME280;24384;51.988;4.644;2022-09-03T02:03:22;101262.47;;;18.95;100.00
38630;BME280;24384;51.988;4.644;2022-09-03T02:05:49;101261.84;;;18.86;100.00
38630;BME280;24384;51.988;4.644;2022-09-03T02:08:17;101263.31;;;18.96;100.00
38630;BME280;24384;51.988;4.644;2022-09-03T02:10:47;101263.41;;;18.83;100.00
38630;BME280;24384;51.988;4.644;2022-09-03T02:13:26;101264.22;;;18.68;100.00
38630;BME280;24384;51.988;4.644;2022-09-03T02:15:55;101257.50;;;18.76;100.00
38630;BME280;24384;51.988;4.644;2022-09-03T02:18:32;101260.25;;;18.88;100.00
38630;BME280;24384;51.988;4.644;2022-09-03T02:21:01;101253.28;;;18.70;100.00
38630;BME280;24384;51.988;4.644;2022-09-03T02:23:26;101258.91;;;18.51;100.00
38630;BME280;24384;51.988;4.644;2022-09-03T02:25:57;101251.78;;;18.76;100.00
38630;BME280;24384;51.988;4.644;2022-09-03T02:28:25;101249.97;;;18.68;100.00
38630;BME280;24384;51.988;4.644;2022-09-03T02:30:51;101252.72;;;18.80;100.00
38630;BME280;24384;51.988;4.644;2022-09-03T02:33:16;101241.81;;;18.39;100.00
38630;BME280;24384;51.988;4.644;2022-09-03T02:35:42;101242.22;;;18.37;100.00
38630;BME280;24384;51.988;4.644;2022-09-03T02:38:28;101242.88;;;18.78;100.00
38630;BME280;24384;51.988;4.644;2022-09-03T02:40:54;101251.34;;;18.90;100.00
38630;BME280;24384;51.988;4.644;2022-09-03T02:43:26;101253.09;;;18.63;100.00
38630;BME280;24384;51.988;4.644;2022-09-03T02:46:04;101254.72;;;18.33;100.00
38630;BME280;24384;51.988;4.644;2022-09-03T02:48:31;101260.28;;;18.14;100.00
38630;BME280;24384;51.988;4.644;2022-09-03T02:50:57;101264.91;;;18.34;100.00
38630;BME280;24384;51.988;4.644;2022-09-03T02:53:23;101260.44;;;18.33;100.00
38630;BME280;24384;51.988;4.644;2022-09-03T02:55:48;101248.38;;;18.24;100.00
38630;BME280;24384;51.988;4.644;2022-09-03T02:58:14;101255.41;;;17.99;100.00
38630;BME280;24384;51.988;4.644;2022-09-03T03:00:39;101253.13;;;18.04;100.00
38630;BME280;24384;51.988;4.644;2022-09-03T03:03:05;101257.31;;;17.95;100.00
38630;BME280;24384;51.988;4.644;2022-09-03T03:05:48;101245.63;;;18.00;100.00
38630;BME280;24384;51.988;4.644;2022-09-03T03:08:15;101252.38;;;18.07;100.00
38630;BME280;24384;51.988;4.644;2022-09-03T03:10:45;101258.41;;;17.90;100.00
38630;BME280;24384;51.988;4.644;2022-09-03T03:13:12;101252.91;;;17.69;100.00
38630;BME280;24384;51.988;4.644;2022-09-03T03:15:38;101254.88;;;17.81;100.00
38630;BME280;24384;51.988;4.644;2022-09-03T03:18:03;101249.03;;;17.90;100.00
38630;BME280;24384;51.988;4.644;2022-09-03T03:20:29;101249.75;;;17.47;100.00
38630;BME280;24384;51.988;4.644;2022-09-03T03:22:54;101253.34;;;17.84;100.00
38630;BME280;24384;51.988;4.644;2022-09-03T03:25:20;101242.41;;;17.58;100.00
38630;BME280;24384;51.988;4.644;2022-09-03T03:27:45;101251.16;;;17.93;100.00
38630;BME280;24384;51.988;4.644;2022-09-03T03:30:11;101251.44;;;17.88;100.00
38630;BME280;24384;51.988;4.644;2022-09-03T03:32:37;101250.09;;;17.57;100.00
38630;BME280;24384;51.988;4.644;2022-09-03T03:35:04;101250.22;;;17.49;100.00
38630;BME280;24384;51.988;4.644;2022-09-03T03:37:31;101256.78;;;17.37;100.00
38630;BME280;24384;51.988;4.644;2022-09-03T03:39:57;101256.28;;;17.47;100.00
38630;BME280;24384;51.988;4.644;2022-09-03T03:42:22;101251.59;;;17.79;100.00
38630;BME280;24384;51.988;4.644;2022-09-03T03:44:48;101252.50;;;17.55;100.00
38630;BME280;24384;51.988;4.644;2022-09-03T03:47:13;101256.03;;;17.52;100.00
38630;BME280;24384;51.988;4.644;2022-09-03T03:49:41;101255.56;;;17.50;100.00
38630;BME280;24384;51.988;4.644;2022-09-03T03:52:07;101256.44;;;17.39;100.00
38630;BME280;24384;51.988;4.644;2022-09-03T03:54:32;101264.97;;;17.39;100.00
38630;BME280;24384;51.988;4.644;2022-09-03T03:56:57;101260.31;;;17.46;100.00
38630;BME280;24384;51.988;4.644;2022-09-03T03:59:23;101252.19;;;17.33;100.00
38630;BME280;24384;51.988;4.644;2022-09-03T04:01:48;101259.94;;;17.60;100.00
38630;BME280;24384;51.988;4.644;2022-09-03T04:04:14;101258.19;;;17.55;100.00
38630;BME280;24384;51.988;4.644;2022-09-03T04:06:40;101256.75;;;17.61;100.00
38630;BME280;24384;51.988;4.644;2022-09-03T04:09:06;101260.69;;;17.45;100.00
38630;BME280;24384;51.988;4.644;2022-09-03T04:11:31;101258.00;;;17.36;100.00
38630;BME280;24384;51.988;4.644;2022-09-03T04:13:56;101257.31;;;17.15;100.00
38630;BME280;24384;51.988;4.644;2022-09-03T04:16:25;101260.16;;;17.03;100.00
38630;BME280;24384;51.988;4.644;2022-09-03T04:18:52;101249.09;;;17.25;100.00
38630;BME280;24384;51.988;4.644;2022-09-03T04:21:20;101254.47;;;17.15;100.00
38630;BME280;24384;51.988;4.644;2022-09-03T04:23:47;101256.06;;;17.40;100.00
38630;BME280;24384;51.988;4.644;2022-09-03T04:26:15;101256.34;;;17.23;100.00
38630;BME280;24384;51.988;4.644;2022-09-03T04:28:40;101251.75;;;17.06;100.00
38630;BME280;24384;51.988;4.644;2022-09-03T04:31:09;101261.13;;;17.07;100.00
38630;BME280;24384;51.988;4.644;2022-09-03T04:33:35;101255.16;;;17.36;100.00
38630;BME280;24384;51.988;4.644;2022-09-03T04:38:32;101246.69;;;17.00;100.00
38630;BME280;24384;51.988;4.644;2022-09-03T04:40:58;101246.56;;;16.96;100.00
38630;BME280;24384;51.988;4.644;2022-09-03T04:43:25;101251.28;;;17.16;100.00
38630;BME280;24384;51.988;4.644;2022-09-03T04:45:50;101246.31;;;17.01;100.00
38630;BME280;24384;51.988;4.644;2022-09-03T04:48:16;101246.16;;;17.22;100.00
38630;BME280;24384;51.988;4.644;2022-09-03T04:50:41;101244.09;;;16.83;100.00
38630;BME280;24384;51.988;4.644;2022-09-03T04:53:07;101252.00;;;17.13;100.00
38630;BME280;24384;51.988;4.644;2022-09-03T04:55:36;101244.34;;;17.30;100.00
38630;BME280;24384;51.988;4.644;2022-09-03T04:58:05;101246.16;;;17.22;100.00
38630;BME280;24384;51.988;4.644;2022-09-03T05:00:37;101252.56;;;17.19;100.00
38630;BME280;24384;51.988;4.644;2022-09-03T05:03:02;101248.78;;;17.15;100.00
38630;BME280;24384;51.988;4.644;2022-09-03T05:05:32;101246.03;;;17.31;100.00
38630;BME280;24384;51.988;4.644;2022-09-03T05:08:01;101247.34;;;17.21;100.00
38630;BME280;24384;51.988;4.644;2022-09-03T05:10:27;101247.97;;;16.90;100.00
38630;BME280;24384;51.988;4.644;2022-09-03T05:13:00;101252.13;;;17.05;100.00
38630;BME280;24384;51.988;4.644;2022-09-03T05:15:25;101249.34;;;17.20;100.00
38630;BME280;24384;51.988;4.644;2022-09-03T05:17:55;101259.72;;;16.64;100.00
38630;BME280;24384;51.988;4.644;2022-09-03T05:20:21;101260.91;;;16.88;100.00
38630;BME280;24384;51.988;4.644;2022-09-03T05:22:47;101257.94;;;17.08;100.00
38630;BME280;24384;51.988;4.644;2022-09-03T05:25:12;101251.88;;;17.10;100.00
38630;BME280;24384;51.988;4.644;2022-09-03T05:27:38;101256.56;;;17.30;100.00
38630;BME280;24384;51.988;4.644;2022-09-03T05:30:03;101244.75;;;17.16;100.00
38630;BME280;24384;51.988;4.644;2022-09-03T05:32:30;101248.25;;;17.37;100.00
38630;BME280;24384;51.988;4.644;2022-09-03T05:34:55;101259.94;;;16.96;100.00
38630;BME280;24384;51.988;4.644;2022-09-03T05:37:21;101254.56;;;17.31;100.00
38630;BME280;24384;51.988;4.644;2022-09-03T05:39:47;101250.94;;;17.46;100.00
38630;BME280;24384;51.988;4.644;2022-09-03T05:42:13;101259.94;;;16.96;100.00
38630;BME280;24384;51.988;4.644;2022-09-03T05:44:39;101254.13;;;17.04;100.00
38630;BME280;24384;51.988;4.644;2022-09-03T05:47:04;101255.16;;;17.36;100.00
38630;BME280;24384;51.988;4.644;2022-09-03T05:49:30;101254.84;;;17.13;100.00
38630;BME280;24384;51.988;4.644;2022-09-03T05:51:56;101256.56;;;17.30;100.00
38630;BME280;24384;51.988;4.644;2022-09-03T05:54:22;101271.34;;;17.08;100.00
38630;BME280;24384;51.988;4.644;2022-09-03T05:56:47;101265.94;;;17.31;100.00
38630;BME280;24384;51.988;4.644;2022-09-03T05:59:13;101262.53;;;17.13;100.00
38630;BME280;24384;51.988;4.644;2022-09-03T06:01:44;101255.72;;;17.42;100.00
38630;BME280;24384;51.988;4.644;2022-09-03T06:04:12;101258.97;;;17.28;100.00
38630;BME280;24384;51.988;4.644;2022-09-03T06:06:40;101259.44;;;17.70;100.00
38630;BME280;24384;51.988;4.644;2022-09-03T06:09:09;101253.44;;;17.59;100.00
38630;BME280;24384;51.988;4.644;2022-09-03T06:11:37;101248.66;;;17.63;100.00
38630;BME280;24384;51.988;4.644;2022-09-03T06:14:05;101260.47;;;17.77;100.00
38630;BME280;24384;51.988;4.644;2022-09-03T06:16:33;101259.56;;;17.73;100.00
38630;BME280;24384;51.988;4.644;2022-09-03T06:18:59;101268.16;;;17.61;100.00
38630;BME280;24384;51.988;4.644;2022-09-03T06:21:25;101264.53;;;17.76;100.00
38630;BME280;24384;51.988;4.644;2022-09-03T06:23:55;101250.53;;;17.99;100.00
38630;BME280;24384;51.988;4.644;2022-09-03T06:26:21;101264.63;;;18.08;100.00
38630;BME280;24384;51.988;4.644;2022-09-03T06:28:47;101269.84;;;18.06;100.00
38630;BME280;24384;51.988;4.644;2022-09-03T06:31:15;101278.41;;;18.06;100.00
38630;BME280;24384;51.988;4.644;2022-09-03T06:33:42;101265.66;;;18.15;100.00
38630;BME280;24384;51.988;4.644;2022-09-03T06:36:09;101265.59;;;18.43;100.00
38630;BME280;24384;51.988;4.644;2022-09-03T06:38:36;101263.75;;;18.35;100.00
38630;BME280;24384;51.988;4.644;2022-09-03T06:41:10;101276.75;;;18.48;100.00
38630;BME280;24384;51.988;4.644;2022-09-03T06:43:40;101269.56;;;18.54;100.00
38630;BME280;24384;51.988;4.644;2022-09-03T06:46:14;101274.94;;;18.56;100.00
38630;BME280;24384;51.988;4.644;2022-09-03T06:48:40;101279.03;;;18.74;100.00
38630;BME280;24384;51.988;4.644;2022-09-03T06:51:10;101283.09;;;18.88;100.00
38630;BME280;24384;51.988;4.644;2022-09-03T06:53:38;101280.97;;;18.85;100.00
38630;BME280;24384;51.988;4.644;2022-09-03T06:56:11;101269.47;;;18.98;100.00
38630;BME280;24384;51.988;4.644;2022-09-03T06:58:39;101272.53;;;19.24;100.00
38630;BME280;24384;51.988;4.644;2022-09-03T07:01:16;101274.53;;;19.04;100.00
38630;BME280;24384;51.988;4.644;2022-09-03T07:03:43;101275.91;;;18.94;100.00
38630;BME280;24384;51.988;4.644;2022-09-03T07:06:14;101288.59;;;19.13;100.00
38630;BME280;24384;51.988;4.644;2022-09-03T07:08:42;101284.41;;;19.26;100.00
38630;BME280;24384;51.988;4.644;2022-09-03T07:11:16;101277.97;;;19.64;100.00
38630;BME280;24384;51.988;4.644;2022-09-03T07:13:46;101281.19;;;19.62;100.00
38630;BME280;24384;51.988;4.644;2022-09-03T07:16:27;101284.28;;;19.73;100.00
38630;BME280;24384;51.988;4.644;2022-09-03T07:18:53;101277.59;;;20.03;100.00
38630;BME280;24384;51.988;4.644;2022-09-03T07:21:21;101281.38;;;19.88;100.00
38630;BME280;24384;51.988;4.644;2022-09-03T07:23:47;101281.28;;;19.85;100.00
38630;BME280;24384;51.988;4.644;2022-09-03T07:26:25;101276.44;;;19.70;100.00
38630;BME280;24384;51.988;4.644;2022-09-03T07:28:51;101278.81;;;19.83;100.00
38630;BME280;24384;51.988;4.644;2022-09-03T07:31:23;101282.69;;;19.75;100.00
38630;BME280;24384;51.988;4.644;2022-09-03T07:33:54;101281.56;;;19.99;100.00
38630;BME280;24384;51.988;4.644;2022-09-03T07:36:20;101274.56;;;20.35;100.00
38630;BME280;24384;51.988;4.644;2022-09-03T07:38:46;101287.59;;;20.13;100.00
38630;BME280;24384;51.988;4.644;2022-09-03T07:41:13;101286.91;;;20.20;100.00
38630;BME280;24384;51.988;4.644;2022-09-03T07:43:40;101269.41;;;20.67;100.00
38630;BME280;24384;51.988;4.644;2022-09-03T07:46:17;101281.09;;;20.81;100.00
38630;BME280;24384;51.988;4.644;2022-09-03T07:48:49;101274.91;;;21.01;100.00
38630;BME280;24384;51.988;4.644;2022-09-03T07:51:15;101278.13;;;20.74;100.00
38630;BME280;24384;51.988;4.644;2022-09-03T07:53:42;101276.22;;;21.30;100.00
38630;BME280;24384;51.988;4.644;2022-09-03T07:56:09;101279.44;;;21.29;100.00
38630;BME280;24384;51.988;4.644;2022-09-03T07:58:37;101283.41;;;21.17;100.00
38630;BME280;24384;51.988;4.644;2022-09-03T08:01:12;101287.50;;;21.46;100.00
38630;BME280;24384;51.988;4.644;2022-09-03T08:03:41;101284.34;;;21.54;100.00
38630;BME280;24384;51.988;4.644;2022-09-03T08:06:10;101277.56;;;21.96;100.00
38630;BME280;24384;51.988;4.644;2022-09-03T08:08:37;101279.19;;;21.37;100.00
38630;BME280;24384;51.988;4.644;2022-09-03T08:11:07;101281.75;;;22.05;100.00
38630;BME280;24384;51.988;4.644;2022-09-03T08:13:47;101275.81;;;22.21;100.00
38630;BME280;24384;51.988;4.644;2022-09-03T08:16:14;101285.88;;;22.04;100.00
38630;BME280;24384;51.988;4.644;2022-09-03T08:18:40;101298.97;;;22.05;100.00
38630;BME280;24384;51.988;4.644;2022-09-03T08:21:08;101309.94;;;21.96;100.00
38630;BME280;24384;51.988;4.644;2022-09-03T08:23:42;101309.00;;;21.59;100.00
38630;BME280;24384;51.988;4.644;2022-09-03T08:26:08;101315.47;;;21.82;100.00
38630;BME280;24384;51.988;4.644;2022-09-03T08:28:34;101309.09;;;21.66;100.00
38630;BME280;24384;51.988;4.644;2022-09-03T08:31:14;101315.94;;;21.58;100.00
38630;BME280;24384;51.988;4.644;2022-09-03T08:33:42;101308.53;;;22.50;100.00
38630;BME280;24384;51.988;4.644;2022-09-03T08:36:25;101312.81;;;22.29;100.00
38630;BME280;24384;51.988;4.644;2022-09-03T08:38:52;101308.53;;;22.50;100.00
38630;BME280;24384;51.988;4.644;2022-09-03T08:44:05;101306.91;;;22.89;100.00
38630;BME280;24384;51.988;4.644;2022-09-03T08:49:21;101309.81;;;22.96;100.00
38630;BME280;24384;51.988;4.644;2022-09-03T08:51:47;101293.50;;;23.62;100.00
38630;BME280;24384;51.988;4.644;2022-09-03T08:54:15;101307.19;;;22.77;100.00
38630;BME280;24384;51.988;4.644;2022-09-03T08:56:42;101313.63;;;23.11;100.00
38630;BME280;24384;51.988;4.644;2022-09-03T08:59:08;101310.03;;;23.21;100.00
38630;BME280;24384;51.988;4.644;2022-09-03T09:07:27;101298.75;;;24.25;100.00
38630;BME280;24384;51.988;4.644;2022-09-03T09:10:18;101285.28;;;24.57;100.00
38630;BME280;24384;51.988;4.644;2022-09-03T09:15:45;101298.31;;;24.19;100.00
38630;BME280;24384;51.988;4.644;2022-09-03T09:21:12;101302.97;;;24.73;100.00
38630;BME280;24384;51.988;4.644;2022-09-03T09:23:48;101311.53;;;24.34;100.00
38630;BME280;24384;51.988;4.644;2022-09-03T09:26:17;101301.22;;;24.30;100.00
38630;BME280;24384;51.988;4.644;2022-09-03T09:28:45;101314.16;;;24.89;100.00
38630;BME280;24384;51.988;4.644;2022-09-03T09:31:14;101310.81;;;24.66;100.00
38630;BME280;24384;51.988;4.644;2022-09-03T09:33:40;101307.56;;;25.24;100.00
38630;BME280;24384;51.988;4.644;2022-09-03T09:36:09;101306.69;;;25.73;100.00
38630;BME280;24384;51.988;4.644;2022-09-03T09:38:38;101308.78;;;25.58;100.00
38630;BME280;24384;51.988;4.644;2022-09-03T09:41:15;101313.63;;;25.89;100.00
38630;BME280;24384;51.988;4.644;2022-09-03T09:43:43;101310.81;;;25.61;100.00
38630;BME280;24384;51.988;4.644;2022-09-03T09:46:22;101295.00;;;26.15;100.00
38630;BME280;24384;51.988;4.644;2022-09-03T09:48:55;101303.06;;;26.48;100.00
38630;BME280;24384;51.988;4.644;2022-09-03T09:51:23;101296.22;;;26.90;100.00
38630;BME280;24384;51.988;4.644;2022-09-03T09:54:17;101293.72;;;27.36;100.00
38630;BME280;24384;51.988;4.644;2022-09-03T09:56:45;101301.56;;;26.95;100.00
38630;BME280;24384;51.988;4.644;2022-09-03T09:59:12;101300.00;;;26.80;100.00
38630;BME280;24384;51.988;4.644;2022-09-03T10:01:43;101287.72;;;27.17;100.00
38630;BME280;24384;51.988;4.644;2022-09-03T10:04:21;101297.53;;;26.75;100.00
38630;BME280;24384;51.988;4.644;2022-09-03T10:06:53;101290.50;;;27.27;100.00
38630;BME280;24384;51.988;4.644;2022-09-03T10:09:31;101291.13;;;27.05;100.00
38630;BME280;24384;51.988;4.644;2022-09-03T10:12:06;101289.00;;;27.16;100.00
38630;BME280;24384;51.988;4.644;2022-09-03T10:14:55;101282.44;;;27.05;100.00
38630;BME280;24384;51.988;4.644;2022-09-03T10:20:21;101281.41;;;28.07;100.00
38630;BME280;24384;51.988;4.644;2022-09-03T10:23:06;101270.59;;;28.72;100.00
38630;BME280;24384;51.988;4.644;2022-09-03T10:28:12;101279.47;;;27.93;100.00
38630;BME280;24384;51.988;4.644;2022-09-03T10:33:26;101269.28;;;28.46;100.00
38630;BME280;24384;51.988;4.644;2022-09-03T10:36:09;101277.44;;;28.24;100.00
38630;BME280;24384;51.988;4.644;2022-09-03T10:38:37;101273.81;;;27.83;100.00
38630;BME280;24384;51.988;4.644;2022-09-03T10:46:16;101266.97;;;28.64;100.00
38630;BME280;24384;51.988;4.644;2022-09-03T10:51:33;101263.50;;;28.99;100.00
38630;BME280;24384;51.988;4.644;2022-09-03T10:57:06;101273.44;;;29.25;100.00
38630;BME280;24384;51.988;4.644;2022-09-03T11:07:47;101267.00;;;28.87;100.00
38630;BME280;24384;51.988;4.644;2022-09-03T11:10:24;101270.97;;;28.74;100.00
38630;BME280;24384;51.988;4.644;2022-09-03T11:13:11;101263.06;;;29.24;100.00
38630;BME280;24384;51.988;4.644;2022-09-03T11:15:51;101253.16;;;29.88;100.00
38630;BME280;24384;51.988;4.644;2022-09-03T11:18:26;101251.13;;;29.85;100.00
38630;BME280;24384;51.988;4.644;2022-09-03T11:20:57;101245.03;;;29.36;100.00
38630;BME280;24384;51.988;4.644;2022-09-03T11:23:27;101249.56;;;30.19;100.00
38630;BME280;24384;51.988;4.644;2022-09-03T11:25:58;101244.78;;;29.70;100.00
38630;BME280;24384;51.988;4.644;2022-09-03T11:28:40;101254.38;;;29.67;100.00
38630;BME280;24384;51.988;4.644;2022-09-03T11:31:15;101253.19;;;29.64;100.00
38630;BME280;24384;51.988;4.644;2022-09-03T11:33:55;101254.41;;;29.44;100.00
38630;BME280;24384;51.988;4.644;2022-09-03T11:36:33;101251.97;;;29.42;100.00
38630;BME280;24384;51.988;4.644;2022-09-03T11:38:59;101258.94;;;29.68;100.00
38630;BME280;24384;51.988;4.644;2022-09-03T11:41:27;101251.78;;;29.73;99.49
38630;BME280;24384;51.988;4.644;2022-09-03T11:43:53;101260.75;;;29.58;94.58
38630;BME280;24384;51.988;4.644;2022-09-03T11:48:49;101249.31;;;30.66;94.88
38630;BME280;24384;51.988;4.644;2022-09-03T11:53:57;101248.25;;;31.08;95.57
38630;BME280;24384;51.988;4.644;2022-09-03T11:56:23;101245.72;;;30.94;95.40
38630;BME280;24384;51.988;4.644;2022-09-03T11:59:45;101247.22;;;30.83;97.67
38630;BME280;24384;51.988;4.644;2022-09-03T12:01:55;101238.28;;;31.09;97.66
38630;BME280;24384;51.988;4.644;2022-09-03T12:04:48;101248.41;;;30.53;96.08
38630;BME280;24384;51.988;4.644;2022-09-03T12:15:48;101241.94;;;31.87;83.62
38630;BME280;24384;51.988;4.644;2022-09-03T12:18:28;101245.00;;;32.37;88.00
38630;BME280;24384;51.988;4.644;2022-09-03T12:23:51;101247.25;;;32.84;78.59
38630;BME280;24384;51.988;4.644;2022-09-03T12:26:25;101250.59;;;32.44;78.10
38630;BME280;24384;51.988;4.644;2022-09-03T12:28:56;101233.63;;;32.81;81.91
38630;BME280;24384;51.988;4.644;2022-09-03T12:31:28;101246.06;;;31.45;79.36
38630;BME280;24384;51.988;4.644;2022-09-03T12:33:57;101239.31;;;32.84;73.39
38630;BME280;24384;51.988;4.644;2022-09-03T12:36:24;101243.84;;;33.11;76.09
38630;BME280;24384;51.988;4.644;2022-09-03T12:38:51;101229.25;;;34.01;73.19
38630;BME280;24384;51.988;4.644;2022-09-03T12:41:25;101237.22;;;32.97;76.63
38630;BME280;24384;51.988;4.644;2022-09-03T12:43:56;101228.13;;;34.20;69.52
38630;BME280;24384;51.988;4.644;2022-09-03T12:46:23;101213.13;;;34.71;69.95
38630;BME280;24384;51.988;4.644;2022-09-03T12:48:56;101211.50;;;36.00;65.83
38630;BME280;24384;51.988;4.644;2022-09-03T12:51:37;101214.88;;;34.28;68.32
38630;BME280;24384;51.988;4.644;2022-09-03T12:54:05;101218.13;;;33.65;69.23
38630;BME280;24384;51.988;4.644;2022-09-03T12:56:34;101225.69;;;32.69;73.53
38630;BME280;24384;51.988;4.644;2022-09-03T12:59:08;101233.59;;;33.06;75.78
38630;BME280;24384;51.988;4.644;2022-09-03T13:01:45;101227.72;;;34.61;70.50
38630;BME280;24384;51.988;4.644;2022-09-03T13:04:21;101214.44;;;35.28;69.88
38630;BME280;24384;51.988;4.644;2022-09-03T13:07:03;101228.78;;;32.24;72.32
38630;BME280;24384;51.988;4.644;2022-09-03T13:09:34;101226.13;;;32.80;67.12
38630;BME280;24384;51.988;4.644;2022-09-03T13:12:00;101215.88;;;35.23;64.07
38630;BME280;24384;51.988;4.644;2022-09-03T13:14:43;101222.75;;;32.56;72.57
38630;BME280;24384;51.988;4.644;2022-09-03T13:28:30;101208.28;;;34.86;60.26
38630;BME280;24384;51.988;4.644;2022-09-03T13:33:45;101225.38;;;32.25;66.76
38630;BME280;24384;51.988;4.644;2022-09-03T13:36:19;101211.81;;;34.72;57.67
38630;BME280;24384;51.988;4.644;2022-09-03T13:39:05;101218.75;;;31.83;64.52
38630;BME280;24384;51.988;4.644;2022-09-03T13:41:50;101208.63;;;34.48;60.58
38630;BME280;24384;51.988;4.644;2022-09-03T13:44:41;101205.59;;;33.86;61.15
38630;BME280;24384;51.988;4.644;2022-09-03T13:50:18;101213.19;;;32.68;67.54
38630;BME280;24384;51.988;4.644;2022-09-03T13:53:18;101211.66;;;33.36;67.46
38630;BME280;24384;51.988;4.644;2022-09-03T13:55:48;101198.72;;;34.24;63.26
38630;BME280;24384;51.988;4.644;2022-09-03T14:01:03;101212.50;;;34.45;62.73
38630;BME280;24384;51.988;4.644;2022-09-03T14:14:05;101198.00;;;35.48;56.80
38630;BME280;24384;51.988;4.644;2022-09-03T14:16:56;101205.50;;;35.22;60.40
38630;BME280;24384;51.988;4.644;2022-09-03T14:21:57;101226.56;;;34.28;58.47
38630;BME280;24384;51.988;4.644;2022-09-03T14:24:30;101226.56;;;33.50;60.15
38630;BME280;24384;51.988;4.644;2022-09-03T14:27:01;101223.09;;;33.77;62.02
38630;BME280;24384;51.988;4.644;2022-09-03T14:29:32;101222.34;;;33.86;60.96
38630;BME280;24384;51.988;4.644;2022-09-03T14:57:06;101215.44;;;34.76;57.52
38630;BME280;24384;51.988;4.644;2022-09-03T14:59:54;101229.59;;;33.13;63.76
38630;BME280;24384;51.988;4.644;2022-09-03T15:05:06;101207.59;;;33.55;59.78
38630;BME280;24384;51.988;4.644;2022-09-03T15:07:41;101223.25;;;31.84;65.07
38630;BME280;24384;51.988;4.644;2022-09-03T15:10:30;101218.44;;;31.65;63.01
38630;BME280;24384;51.988;4.644;2022-09-03T15:20:55;101220.06;;;31.21;62.53
38630;BME280;24384;51.988;4.644;2022-09-03T15:23:23;101224.66;;;32.21;65.67
38630;BME280;24384;51.988;4.644;2022-09-03T15:29:02;101225.31;;;32.00;64.60
38630;BME280;24384;51.988;4.644;2022-09-03T15:31:50;101224.84;;;30.47;67.38
38630;BME280;24384;51.988;4.644;2022-09-03T15:34:41;101219.81;;;31.61;69.19
38630;BME280;24384;51.988;4.644;2022-09-03T15:39:44;101231.22;;;30.23;77.17
38630;BME280;24384;51.988;4.644;2022-09-03T15:42:21;101217.72;;;31.00;71.90
38630;BME280;24384;51.988;4.644;2022-09-03T15:44:53;101225.31;;;30.26;72.81
38630;BME280;24384;51.988;4.644;2022-09-03T15:47:33;101222.50;;;31.23;69.93
38630;BME280;24384;51.988;4.644;2022-09-03T15:50:31;101219.69;;;30.19;73.04
38630;BME280;24384;51.988;4.644;2022-09-03T15:56:02;101210.94;;;31.36;72.65
38630;BME280;24384;51.988;4.644;2022-09-03T15:58:36;101215.34;;;31.27;68.28
38630;BME280;24384;51.988;4.644;2022-09-03T16:01:31;101219.44;;;30.98;70.59
38630;BME280;24384;51.988;4.644;2022-09-03T16:19:10;101231.00;;;29.74;80.59
38630;BME280;24384;51.988;4.644;2022-09-03T16:21:53;101238.53;;;29.05;90.13
38630;BME280;24384;51.988;4.644;2022-09-03T16:24:28;101230.97;;;29.12;86.10
38630;BME280;24384;51.988;4.644;2022-09-03T16:27:13;101227.13;;;29.61;79.86
38630;BME280;24384;51.988;4.644;2022-09-03T16:29:55;101227.72;;;29.72;83.55
38630;BME280;24384;51.988;4.644;2022-09-03T16:32:25;101222.13;;;29.42;84.84
38630;BME280;24384;51.988;4.644;2022-09-03T16:35:03;101229.31;;;29.34;87.83
38630;BME280;24384;51.988;4.644;2022-09-03T16:40:50;101238.19;;;28.20;100.00